sensor_id;sensor_type;location;lat;lon;timestamp;P1;durP1;ratioP1;P2;durP2;ratioP2
64099;SDS011;50385;61.766;38.054;2022-11-15T00:00:44;3.22;;;1.50;;
64099;SDS011;50385;61.766;38.054;2022-11-15T00:03:32;7.72;;;2.78;;
64099;SDS011;50385;61.766;38.054;2022-11-15T00:06:19;8.82;;;2.50;;
64099;SDS011;50385;61.766;38.054;2022-11-15T00:09:04;4.15;;;2.08;;
64099;SDS011;50385;61.766;38.054;2022-11-15T00:11:51;10.55;;;3.05;;
64099;SDS011;50385;61.766;38.054;2022-11-15T00:14:39;10.45;;;3.78;;
64099;SDS011;50385;61.766;38.054;2022-11-15T00:17:24;10.32;;;4.65;;
64099;SDS011;50385;61.766;38.054;2022-11-15T00:20:10;8.52;;;3.80;;
64099;SDS011;50385;61.766;38.054;2022-11-15T00:23:03;9.10;;;2.88;;
64099;SDS011;50385;61.766;38.054;2022-11-15T00:25:55;9.48;;;4.28;;
64099;SDS011;50385;61.766;38.054;2022-11-15T00:28:47;6.05;;;3.22;;
64099;SDS011;50385;61.766;38.054;2022-11-15T00:31:33;8.13;;;3.72;;
64099;SDS011;50385;61.766;38.054;2022-11-15T00:34:18;16.05;;;4.43;;
64099;SDS011;50385;61.766;38.054;2022-11-15T00:37:04;7.93;;;2.67;;
64099;SDS011;50385;61.766;38.054;2022-11-15T00:39:49;7.20;;;3.05;;
64099;SDS011;50385;61.766;38.054;2022-11-15T00:42:34;6.95;;;1.60;;
64099;SDS011;50385;61.766;38.054;2022-11-15T00:45:20;5.35;;;1.40;;
64099;SDS011;50385;61.766;38.054;2022-11-15T00:48:05;1.67;;;1.27;;
64099;SDS011;50385;61.766;38.054;2022-11-15T00:50:51;3.95;;;1.80;;
64099;SDS011;50385;61.766;38.054;2022-11-15T00:53:36;5.22;;;1.95;;
64099;SDS011;50385;61.766;38.054;2022-11-15T00:56:24;5.85;;;1.80;;
64099;SDS011;50385;61.766;38.054;2022-11-15T00:59:09;3.65;;;1.90;;
64099;SDS011;50385;61.766;38.054;2022-11-15T01:01:55;6.53;;;1.70;;
64099;SDS011;50385;61.766;38.054;2022-11-15T01:04:40;2.67;;;1.35;;
64099;SDS011;50385;61.766;38.054;2022-11-15T01:07:25;5.57;;;1.77;;
64099;SDS011;50385;61.766;38.054;2022-11-15T01:10:10;4.90;;;1.83;;
64099;SDS011;50385;61.766;38.054;2022-11-15T01:12:57;3.05;;;1.40;;
64099;SDS011;50385;61.766;38.054;2022-11-15T01:15:42;6.43;;;1.77;;
64099;SDS011;50385;61.766;38.054;2022-11-15T01:18:37;3.35;;;1.70;;
64099;SDS011;50385;61.766;38.054;2022-11-15T01:21:23;7.20;;;1.67;;
64099;SDS011;50385;61.766;38.054;2022-11-15T01:24:10;4.88;;;1.25;;
64099;SDS011;50385;61.766;38.054;2022-11-15T01:27:02;11.10;;;1.75;;
64099;SDS011;50385;61.766;38.054;2022-11-15T01:29:48;5.38;;;1.60;;
64099;SDS011;50385;61.766;38.054;2022-11-15T01:32:33;10.40;;;1.50;;
64099;SDS011;50385;61.766;38.054;2022-11-15T01:35:19;4.07;;;1.55;;
64099;SDS011;50385;61.766;38.054;2022-11-15T01:38:05;2.58;;;1.75;;
64099;SDS011;50385;61.766;38.054;2022-11-15T01:40:51;4.63;;;1.25;;
64099;SDS011;50385;61.766;38.054;2022-11-15T01:43:36;1.88;;;1.40;;
64099;SDS011;50385;61.766;38.054;2022-11-15T01:46:23;10.07;;;1.52;;
64099;SDS011;50385;61.766;38.054;2022-11-15T01:49:16;5.65;;;1.60;;
64099;SDS011;50385;61.766;38.054;2022-11-15T01:52:04;7.25;;;2.00;;
64099;SDS011;50385;61.766;38.054;2022-11-15T01:55:00;4.82;;;1.55;;
64099;SDS011;50385;61.766;38.054;2022-11-15T01:57:55;4.90;;;1.65;;
64099;SDS011;50385;61.766;38.054;2022-11-15T02:00:43;3.72;;;1.40;;
64099;SDS011;50385;61.766;38.054;2022-11-15T02:03:41;2.65;;;1.58;;
64099;SDS011;50385;61.766;38.054;2022-11-15T02:06:36;5.75;;;1.27;;
64099;SDS011;50385;61.766;38.054;2022-11-15T02:09:22;5.97;;;1.67;;
64099;SDS011;50385;61.766;38.054;2022-11-15T02:12:08;3.05;;;1.60;;
64099;SDS011;50385;61.766;38.054;2022-11-15T02:14:54;3.78;;;1.48;;
64099;SDS011;50385;61.766;38.054;2022-11-15T02:32:44;6.68;;;1.90;;
64099;SDS011;50385;61.766;38.054;2022-11-15T02:41:13;2.90;;;1.60;;
64099;SDS011;50385;61.766;38.054;2022-11-15T02:46:57;6.28;;;1.77;;
64099;SDS011;50385;61.766;38.054;2022-11-15T02:50:05;8.45;;;1.60;;
64099;SDS011;50385;61.766;38.054;2022-11-15T02:52:52;6.10;;;1.90;;
64099;SDS011;50385;61.766;38.054;2022-11-15T02:55:41;8.40;;;2.05;;
64099;SDS011;50385;61.766;38.054;2022-11-15T02:58:36;4.30;;;1.75;;
64099;SDS011;50385;61.766;38.054;2022-11-15T03:01:38;5.68;;;1.95;;
64099;SDS011;50385;61.766;38.054;2022-11-15T03:08:06;7.45;;;1.73;;
64099;SDS011;50385;61.766;38.054;2022-11-15T03:11:08;5.30;;;1.85;;
64099;SDS011;50385;61.766;38.054;2022-11-15T03:20:20;5.18;;;1.75;;
64099;SDS011;50385;61.766;38.054;2022-11-15T03:23:06;4.20;;;1.50;;
64099;SDS011;50385;61.766;38.054;2022-11-15T03:25:54;1.80;;;1.27;;
64099;SDS011;50385;61.766;38.054;2022-11-15T03:28:50;3.50;;;1.70;;
64099;SDS011;50385;61.766;38.054;2022-11-15T03:31:39;4.78;;;1.58;;
64099;SDS011;50385;61.766;38.054;2022-11-15T03:34:34;3.65;;;1.40;;
64099;SDS011;50385;61.766;38.054;2022-11-15T03:37:51;6.47;;;1.40;;
64099;SDS011;50385;61.766;38.054;2022-11-15T03:40:59;3.75;;;1.58;;
64099;SDS011;50385;61.766;38.054;2022-11-15T03:46:35;7.68;;;1.85;;
64099;SDS011;50385;61.766;38.054;2022-11-15T03:49:33;3.03;;;1.23;;
64099;SDS011;50385;61.766;38.054;2022-11-15T03:52:19;6.07;;;1.98;;
64099;SDS011;50385;61.766;38.054;2022-11-15T03:55:07;4.28;;;1.73;;
64099;SDS011;50385;61.766;38.054;2022-11-15T03:58:00;3.78;;;1.65;;
64099;SDS011;50385;61.766;38.054;2022-11-15T04:00:46;2.17;;;1.45;;
64099;SDS011;50385;61.766;38.054;2022-11-15T04:03:31;6.65;;;2.00;;
64099;SDS011;50385;61.766;38.054;2022-11-15T04:06:16;4.18;;;1.70;;
64099;SDS011;50385;61.766;38.054;2022-11-15T04:09:04;6.38;;;1.42;;
64099;SDS011;50385;61.766;38.054;2022-11-15T04:11:49;2.83;;;1.45;;
64099;SDS011;50385;61.766;38.054;2022-11-15T04:14:35;3.85;;;1.50;;
64099;SDS011;50385;61.766;38.054;2022-11-15T04:17:20;4.57;;;1.40;;
64099;SDS011;50385;61.766;38.054;2022-11-15T04:20:10;3.88;;;1.70;;
64099;SDS011;50385;61.766;38.054;2022-11-15T04:23:19;7.13;;;1.80;;
64099;SDS011;50385;61.766;38.054;2022-11-15T04:26:24;7.07;;;1.63;;
64099;SDS011;50385;61.766;38.054;2022-11-15T04:29:09;6.78;;;1.60;;
64099;SDS011;50385;61.766;38.054;2022-11-15T04:32:13;3.22;;;1.63;;
64099;SDS011;50385;61.766;38.054;2022-11-15T04:34:59;3.28;;;1.35;;
64099;SDS011;50385;61.766;38.054;2022-11-15T04:37:44;6.15;;;1.75;;
64099;SDS011;50385;61.766;38.054;2022-11-15T04:40:30;1.92;;;1.33;;
64099;SDS011;50385;61.766;38.054;2022-11-15T04:43:15;3.42;;;1.35;;
64099;SDS011;50385;61.766;38.054;2022-11-15T04:46:00;3.22;;;1.48;;
64099;SDS011;50385;61.766;38.054;2022-11-15T04:48:48;7.75;;;1.48;;
64099;SDS011;50385;61.766;38.054;2022-11-15T04:51:34;6.40;;;1.40;;
64099;SDS011;50385;61.766;38.054;2022-11-15T04:54:20;3.97;;;1.45;;
64099;SDS011;50385;61.766;38.054;2022-11-15T04:57:05;1.85;;;1.50;;
64099;SDS011;50385;61.766;38.054;2022-11-15T04:59:50;1.70;;;1.40;;
64099;SDS011;50385;61.766;38.054;2022-11-15T05:02:35;2.45;;;1.55;;
64099;SDS011;50385;61.766;38.054;2022-11-15T05:05:39;2.53;;;1.40;;
64099;SDS011;50385;61.766;38.054;2022-11-15T05:08:25;3.25;;;1.58;;
64099;SDS011;50385;61.766;38.054;2022-11-15T05:11:10;4.97;;;1.60;;
64099;SDS011;50385;61.766;38.054;2022-11-15T05:13:58;1.92;;;1.73;;
64099;SDS011;50385;61.766;38.054;2022-11-15T05:16:44;12.13;;;4.72;;
64099;SDS011;50385;61.766;38.054;2022-11-15T05:19:29;4.25;;;1.90;;
64099;SDS011;50385;61.766;38.054;2022-11-15T05:22:14;9.43;;;2.35;;
64099;SDS011;50385;61.766;38.054;2022-11-15T05:24:59;3.78;;;2.00;;
64099;SDS011;50385;61.766;38.054;2022-11-15T05:27:44;3.28;;;1.73;;
64099;SDS011;50385;61.766;38.054;2022-11-15T05:30:29;2.42;;;1.67;;
64099;SDS011;50385;61.766;38.054;2022-11-15T05:33:14;1.98;;;1.70;;
64099;SDS011;50385;61.766;38.054;2022-11-15T05:36:02;1.63;;;1.45;;
64099;SDS011;50385;61.766;38.054;2022-11-15T05:39:10;1.98;;;1.48;;
64099;SDS011;50385;61.766;38.054;2022-11-15T05:42:04;1.55;;;1.20;;
64099;SDS011;50385;61.766;38.054;2022-11-15T05:44:54;2.92;;;1.33;;
64099;SDS011;50385;61.766;38.054;2022-11-15T05:47:41;4.80;;;1.60;;
64099;SDS011;50385;61.766;38.054;2022-11-15T05:50:27;2.00;;;1.35;;
64099;SDS011;50385;61.766;38.054;2022-11-15T05:53:12;4.85;;;2.13;;
64099;SDS011;50385;61.766;38.054;2022-11-15T05:56:02;4.47;;;1.42;;
64099;SDS011;50385;61.766;38.054;2022-11-15T05:58:53;1.30;;;1.15;;
64099;SDS011;50385;61.766;38.054;2022-11-15T06:01:40;13.35;;;1.50;;
64099;SDS011;50385;61.766;38.054;2022-11-15T06:04:26;3.65;;;1.38;;
64099;SDS011;50385;61.766;38.054;2022-11-15T06:07:14;3.55;;;1.67;;
64099;SDS011;50385;61.766;38.054;2022-11-15T06:10:00;2.15;;;1.40;;
64099;SDS011;50385;61.766;38.054;2022-11-15T06:12:45;4.30;;;1.85;;
64099;SDS011;50385;61.766;38.054;2022-11-15T06:15:31;2.30;;;1.40;;
64099;SDS011;50385;61.766;38.054;2022-11-15T06:18:18;1.42;;;1.20;;
64099;SDS011;50385;61.766;38.054;2022-11-15T06:21:03;2.13;;;1.40;;
64099;SDS011;50385;61.766;38.054;2022-11-15T06:23:49;1.98;;;1.15;;
64099;SDS011;50385;61.766;38.054;2022-11-15T06:26:34;2.53;;;1.40;;
64099;SDS011;50385;61.766;38.054;2022-11-15T06:29:19;3.25;;;1.23;;
64099;SDS011;50385;61.766;38.054;2022-11-15T06:32:05;4.53;;;1.45;;
64099;SDS011;50385;61.766;38.054;2022-11-15T06:34:51;3.03;;;1.45;;
64099;SDS011;50385;61.766;38.054;2022-11-15T06:37:36;2.88;;;1.50;;
64099;SDS011;50385;61.766;38.054;2022-11-15T06:40:22;2.33;;;1.60;;
64099;SDS011;50385;61.766;38.054;2022-11-15T06:43:08;3.95;;;2.50;;
64099;SDS011;50385;61.766;38.054;2022-11-15T06:45:59;6.28;;;2.70;;
64099;SDS011;50385;61.766;38.054;2022-11-15T06:48:50;6.35;;;3.50;;
64099;SDS011;50385;61.766;38.054;2022-11-15T06:51:36;10.18;;;5.15;;
64099;SDS011;50385;61.766;38.054;2022-11-15T06:54:24;12.98;;;6.65;;
64099;SDS011;50385;61.766;38.054;2022-11-15T06:57:09;10.43;;;5.30;;
64099;SDS011;50385;61.766;38.054;2022-11-15T06:59:55;9.70;;;5.10;;
64099;SDS011;50385;61.766;38.054;2022-11-15T07:02:40;6.78;;;4.43;;
64099;SDS011;50385;61.766;38.054;2022-11-15T07:05:25;7.60;;;4.22;;
64099;SDS011;50385;61.766;38.054;2022-11-15T07:08:13;13.77;;;4.22;;
64099;SDS011;50385;61.766;38.054;2022-11-15T07:10:59;6.30;;;3.95;;
64099;SDS011;50385;61.766;38.054;2022-11-15T07:13:50;3.13;;;2.38;;
64099;SDS011;50385;61.766;38.054;2022-11-15T07:16:36;3.38;;;2.05;;
64099;SDS011;50385;61.766;38.054;2022-11-15T07:19:34;3.83;;;2.90;;
64099;SDS011;50385;61.766;38.054;2022-11-15T07:22:22;21.20;;;7.75;;
64099;SDS011;50385;61.766;38.054;2022-11-15T07:25:08;47.85;;;17.40;;
64099;SDS011;50385;61.766;38.054;2022-11-15T07:27:54;77.63;;;26.25;;
64099;SDS011;50385;61.766;38.054;2022-11-15T07:30:40;24.23;;;12.77;;
64099;SDS011;50385;61.766;38.054;2022-11-15T07:33:26;53.28;;;20.30;;
64099;SDS011;50385;61.766;38.054;2022-11-15T07:36:20;104.43;;;37.05;;
64099;SDS011;50385;61.766;38.054;2022-11-15T07:39:13;26.55;;;11.90;;
64099;SDS011;50385;61.766;38.054;2022-11-15T07:42:03;10.05;;;4.90;;
64099;SDS011;50385;61.766;38.054;2022-11-15T07:45:07;10.88;;;5.70;;
64099;SDS011;50385;61.766;38.054;2022-11-15T07:47:58;23.27;;;9.27;;
64099;SDS011;50385;61.766;38.054;2022-11-15T07:50:45;5.35;;;3.08;;
64099;SDS011;50385;61.766;38.054;2022-11-15T07:53:30;4.03;;;2.10;;
64099;SDS011;50385;61.766;38.054;2022-11-15T07:56:16;4.82;;;2.20;;
64099;SDS011;50385;61.766;38.054;2022-11-15T07:59:01;5.57;;;2.95;;
64099;SDS011;50385;61.766;38.054;2022-11-15T08:01:46;11.35;;;5.03;;
64099;SDS011;50385;61.766;38.054;2022-11-15T08:04:32;4.45;;;2.40;;
64099;SDS011;50385;61.766;38.054;2022-11-15T08:07:17;18.05;;;6.88;;
64099;SDS011;50385;61.766;38.054;2022-11-15T08:10:03;22.67;;;5.80;;
64099;SDS011;50385;61.766;38.054;2022-11-15T08:13:06;8.18;;;3.00;;
64099;SDS011;50385;61.766;38.054;2022-11-15T08:16:02;4.55;;;2.75;;
64099;SDS011;50385;61.766;38.054;2022-11-15T08:18:52;5.72;;;3.42;;
64099;SDS011;50385;61.766;38.054;2022-11-15T08:21:38;6.22;;;3.55;;
64099;SDS011;50385;61.766;38.054;2022-11-15T08:24:23;12.68;;;6.95;;
64099;SDS011;50385;61.766;38.054;2022-11-15T08:31:05;2.10;;;1.10;;
64099;SDS011;50385;61.766;38.054;2022-11-15T08:38:29;1.27;;;1.17;;
64099;SDS011;50385;61.766;38.054;2022-11-15T08:41:23;1.13;;;0.90;;
64099;SDS011;50385;61.766;38.054;2022-11-15T08:44:50;1.58;;;1.15;;
64099;SDS011;50385;61.766;38.054;2022-11-15T08:48:19;3.03;;;1.35;;
64099;SDS011;50385;61.766;38.054;2022-11-15T08:51:17;6.72;;;2.75;;
64099;SDS011;50385;61.766;38.054;2022-11-15T08:54:03;4.45;;;2.90;;
64099;SDS011;50385;61.766;38.054;2022-11-15T08:57:14;1.42;;;1.23;;
64099;SDS011;50385;61.766;38.054;2022-11-15T09:00:01;4.97;;;2.22;;
64099;SDS011;50385;61.766;38.054;2022-11-15T09:03:11;2.97;;;1.95;;
64099;SDS011;50385;61.766;38.054;2022-11-15T09:06:06;1.88;;;1.60;;
64099;SDS011;50385;61.766;38.054;2022-11-15T09:08:57;11.13;;;3.10;;
64099;SDS011;50385;61.766;38.054;2022-11-15T09:11:49;3.67;;;2.17;;
64099;SDS011;50385;61.766;38.054;2022-11-15T09:14:50;3.10;;;2.03;;
64099;SDS011;50385;61.766;38.054;2022-11-15T09:17:54;3.70;;;2.25;;
64099;SDS011;50385;61.766;38.054;2022-11-15T09:24:34;3.75;;;1.73;;
64099;SDS011;50385;61.766;38.054;2022-11-15T09:27:39;2.03;;;1.30;;
64099;SDS011;50385;61.766;38.054;2022-11-15T09:30:45;2.47;;;1.55;;
64099;SDS011;50385;61.766;38.054;2022-11-15T09:34:08;2.95;;;1.90;;
64099;SDS011;50385;61.766;38.054;2022-11-15T09:37:06;5.88;;;3.25;;
64099;SDS011;50385;61.766;38.054;2022-11-15T09:40:08;5.68;;;3.35;;
64099;SDS011;50385;61.766;38.054;2022-11-15T09:49:08;2.90;;;1.65;;
64099;SDS011;50385;61.766;38.054;2022-11-15T09:51:55;4.43;;;1.03;;
64099;SDS011;50385;61.766;38.054;2022-11-15T09:55:04;1.23;;;0.90;;
64099;SDS011;50385;61.766;38.054;2022-11-15T10:00:42;0.88;;;0.82;;
64099;SDS011;50385;61.766;38.054;2022-11-15T10:03:35;0.73;;;0.70;;
64099;SDS011;50385;61.766;38.054;2022-11-15T10:07:06;1.20;;;1.10;;
64099;SDS011;50385;61.766;38.054;2022-11-15T10:09:48;2.88;;;1.30;;
64099;SDS011;50385;61.766;38.054;2022-11-15T10:13:18;3.00;;;1.48;;
64099;SDS011;50385;61.766;38.054;2022-11-15T10:20:06;0.77;;;0.75;;
64099;SDS011;50385;61.766;38.054;2022-11-15T10:23:27;0.88;;;0.80;;
64099;SDS011;50385;61.766;38.054;2022-11-15T10:26:33;4.38;;;2.45;;
64099;SDS011;50385;61.766;38.054;2022-11-15T10:29:30;7.28;;;3.25;;
64099;SDS011;50385;61.766;38.054;2022-11-15T10:32:10;5.10;;;2.75;;
64099;SDS011;50385;61.766;38.054;2022-11-15T10:35:21;3.38;;;2.40;;
64099;SDS011;50385;61.766;38.054;2022-11-15T10:38:17;2.03;;;1.85;;
64099;SDS011;50385;61.766;38.054;2022-11-15T10:41:06;1.15;;;1.08;;
64099;SDS011;50385;61.766;38.054;2022-11-15T10:44:08;6.78;;;2.25;;
64099;SDS011;50385;61.766;38.054;2022-11-15T10:47:06;13.77;;;4.32;;
64099;SDS011;50385;61.766;38.054;2022-11-15T10:50:31;8.70;;;3.83;;
64099;SDS011;50385;61.766;38.054;2022-11-15T10:56:05;6.30;;;2.05;;
64099;SDS011;50385;61.766;38.054;2022-11-15T11:07:39;22.27;;;9.15;;
64099;SDS011;50385;61.766;38.054;2022-11-15T11:15:08;13.90;;;6.63;;
64099;SDS011;50385;61.766;38.054;2022-11-15T13:48:25;11.30;;;6.38;;
64099;SDS011;50385;61.766;38.054;2022-11-15T13:53:00;5.30;;;3.40;;
64099;SDS011;50385;61.766;38.054;2022-11-15T15:04:39;20.70;;;9.30;;
64099;SDS011;50385;61.766;38.054;2022-11-15T16:03:47;11.20;;;6.57;;
64099;SDS011;50385;61.766;38.054;2022-11-15T16:54:06;7.28;;;3.53;;
64099;SDS011;50385;61.766;38.054;2022-11-15T16:58:19;2.50;;;1.98;;
64099;SDS011;50385;61.766;38.054;2022-11-15T18:18:40;4.80;;;3.33;;
64099;SDS011;50385;61.766;38.054;2022-11-15T19:00:03;0.80;;;0.80;;
64099;SDS011;50385;61.766;38.054;2022-11-15T21:54:06;8.57;;;1.45;;
